sensor_id;sensor_type;location;lat;lon;timestamp;pressure;altitude;pressure_sealevel;temperature;humidity
20228;BME280;12195;55.790;37.572;2023-05-03T00:01:01;99948.86;;;11.31;38.61
20228;BME280;12195;55.790;37.572;2023-05-03T00:03:35;99945.99;;;11.36;38.37
20228;BME280;12195;55.790;37.572;2023-05-03T00:06:14;99937.16;;;11.37;38.43
20228;BME280;12195;55.790;37.572;2023-05-03T00:08:47;99930.89;;;11.39;38.11
20228;BME280;12195;55.790;37.572;2023-05-03T00:11:19;99936.06;;;11.41;38.23
20228;BME280;12195;55.790;37.572;2023-05-03T00:13:51;99936.06;;;11.41;38.27
20228;BME280;12195;55.790;37.572;2023-05-03T00:16:23;99926.57;;;11.38;38.30
20228;BME280;12195;55.790;37.572;2023-05-03T00:18:55;99925.55;;;11.41;38.39
20228;BME280;12195;55.790;37.572;2023-05-03T00:21:28;99930.73;;;11.42;38.31
20228;BME280;12195;55.790;37.572;2023-05-03T00:24:01;99925.98;;;11.49;38.20
20228;BME280;12195;55.790;37.572;2023-05-03T00:26:34;99926.06;;;11.47;38.35
20228;BME280;12195;55.790;37.572;2023-05-03T00:29:06;99912.83;;;11.49;38.12
20228;BME280;12195;55.790;37.572;2023-05-03T00:31:38;99929.55;;;11.48;38.17
20228;BME280;12195;55.790;37.572;2023-05-03T00:34:10;99914.36;;;11.37;38.67
20228;BME280;12195;55.790;37.572;2023-05-03T00:36:42;99925.03;;;11.34;38.76
20228;BME280;12195;55.790;37.572;2023-05-03T00:39:15;99901.45;;;11.33;39.41
20228;BME280;12195;55.790;37.572;2023-05-03T00:41:47;99915.54;;;11.32;38.75
20228;BME280;12195;55.790;37.572;2023-05-03T00:44:19;99915.70;;;11.29;38.94
20228;BME280;12195;55.790;37.572;2023-05-03T00:46:52;99904.00;;;11.19;39.40
20228;BME280;12195;55.790;37.572;2023-05-03T00:49:24;99909.33;;;11.17;39.21
20228;BME280;12195;55.790;37.572;2023-05-03T00:51:56;99887.72;;;11.12;39.38
20228;BME280;12195;55.790;37.572;2023-05-03T00:54:29;99888.89;;;11.07;39.72
20228;BME280;12195;55.790;37.572;2023-05-03T00:57:04;99891.67;;;11.03;39.40
20228;BME280;12195;55.790;37.572;2023-05-03T00:59:37;99898.09;;;10.98;39.66
20228;BME280;12195;55.790;37.572;2023-05-03T01:02:09;99886.41;;;11.03;39.30
20228;BME280;12195;55.790;37.572;2023-05-03T01:04:41;99883.03;;;11.02;39.61
20228;BME280;12195;55.790;37.572;2023-05-03T01:07:22;99883.34;;;10.95;39.65
20228;BME280;12195;55.790;37.572;2023-05-03T01:12:55;99873.26;;;10.88;39.83
20228;BME280;12195;55.790;37.572;2023-05-03T01:15:36;99871.56;;;10.87;39.96
20228;BME280;12195;55.790;37.572;2023-05-03T01:18:10;99881.22;;;10.86;40.16
20228;BME280;12195;55.790;37.572;2023-05-03T01:20:46;99875.02;;;10.87;40.28
20228;BME280;12195;55.790;37.572;2023-05-03T01:23:35;99866.47;;;10.84;39.95
20228;BME280;12195;55.790;37.572;2023-05-03T01:26:22;99867.14;;;10.87;40.13
20228;BME280;12195;55.790;37.572;2023-05-03T01:28:55;99860.30;;;11.00;39.49
20228;BME280;12195;55.790;37.572;2023-05-03T01:31:33;99865.31;;;11.05;39.59
20228;BME280;12195;55.790;37.572;2023-05-03T01:36:50;99853.63;;;11.11;39.44
20228;BME280;12195;55.790;37.572;2023-05-03T01:39:26;99851.75;;;11.13;39.42
20228;BME280;12195;55.790;37.572;2023-05-03T01:41:58;99855.08;;;11.16;39.61
20228;BME280;12195;55.790;37.572;2023-05-03T01:44:33;99864.81;;;11.14;39.75
20228;BME280;12195;55.790;37.572;2023-05-03T01:47:06;99863.13;;;11.13;39.73
20228;BME280;12195;55.790;37.572;2023-05-03T01:49:39;99847.20;;;11.16;39.63
20228;BME280;12195;55.790;37.572;2023-05-03T01:52:12;99854.22;;;11.16;39.75
20228;BME280;12195;55.790;37.572;2023-05-03T01:54:45;99849.83;;;11.16;39.63
20228;BME280;12195;55.790;37.572;2023-05-03T01:57:17;99846.34;;;11.16;39.87
20228;BME280;12195;55.790;37.572;2023-05-03T01:59:50;99853.12;;;11.20;39.62
20228;BME280;12195;55.790;37.572;2023-05-03T02:02:22;99842.61;;;11.20;39.62
20228;BME280;12195;55.790;37.572;2023-05-03T02:04:54;99843.28;;;11.23;39.63
20228;BME280;12195;55.790;37.572;2023-05-03T02:07:26;99831.58;;;11.29;39.57
20228;BME280;12195;55.790;37.572;2023-05-03T02:09:58;99838.36;;;11.33;39.14
20228;BME280;12195;55.790;37.572;2023-05-03T02:12:31;99839.81;;;11.38;39.22
20228;BME280;12195;55.790;37.572;2023-05-03T02:15:05;99843.11;;;11.42;39.09
20228;BME280;12195;55.790;37.572;2023-05-03T02:17:38;99841.02;;;11.48;39.16
20228;BME280;12195;55.790;37.572;2023-05-03T02:20:11;99835.39;;;11.54;38.79
20228;BME280;12195;55.790;37.572;2023-05-03T02:22:44;99830.58;;;11.62;38.35
20228;BME280;12195;55.790;37.572;2023-05-03T02:25:16;99848.91;;;11.64;38.33
20228;BME280;12195;55.790;37.572;2023-05-03T02:27:48;99832.10;;;11.66;38.45
20228;BME280;12195;55.790;37.572;2023-05-03T02:30:21;99830.22;;;11.68;38.42
20228;BME280;12195;55.790;37.572;2023-05-03T02:32:53;99827.70;;;11.67;38.53
20228;BME280;12195;55.790;37.572;2023-05-03T02:35:25;99834.90;;;11.63;38.78
20228;BME280;12195;55.790;37.572;2023-05-03T02:37:58;99827.01;;;11.63;38.65
20228;BME280;12195;55.790;37.572;2023-05-03T02:40:30;99827.70;;;11.67;38.79
20228;BME280;12195;55.790;37.572;2023-05-03T02:43:03;99823.27;;;11.67;38.77
20228;BME280;12195;55.790;37.572;2023-05-03T02:45:35;99823.96;;;11.71;38.90
20228;BME280;12195;55.790;37.572;2023-05-03T02:48:07;99824.79;;;11.71;39.06
20228;BME280;12195;55.790;37.572;2023-05-03T02:50:39;99828.08;;;11.75;38.95
20228;BME280;12195;55.790;37.572;2023-05-03T02:53:12;99827.09;;;11.77;38.79
20228;BME280;12195;55.790;37.572;2023-05-03T02:55:44;99826.05;;;11.80;39.03
20228;BME280;12195;55.790;37.572;2023-05-03T02:58:16;99817.14;;;11.82;38.76
20228;BME280;12195;55.790;37.572;2023-05-03T03:00:48;99826.63;;;11.85;38.74
20228;BME280;12195;55.790;37.572;2023-05-03T03:03:21;99824.66;;;11.88;38.83
20228;BME280;12195;55.790;37.572;2023-05-03T03:05:54;99824.41;;;11.93;39.17
20228;BME280;12195;55.790;37.572;2023-05-03T03:08:26;99825.92;;;11.97;38.83
20228;BME280;12195;55.790;37.572;2023-05-03T03:10:59;99843.31;;;11.99;38.94
20228;BME280;12195;55.790;37.572;2023-05-03T03:13:32;99839.00;;;11.98;38.79
20228;BME280;12195;55.790;37.572;2023-05-03T03:16:06;99845.17;;;11.97;38.74
20228;BME280;12195;55.790;37.572;2023-05-03T03:18:38;99842.52;;;12.13;38.06
20228;BME280;12195;55.790;37.572;2023-05-03T03:21:10;99834.56;;;11.99;39.26
20228;BME280;12195;55.790;37.572;2023-05-03T03:23:43;99835.59;;;11.96;38.94
20228;BME280;12195;55.790;37.572;2023-05-03T03:26:15;99842.66;;;11.96;39.31
20228;BME280;12195;55.790;37.572;2023-05-03T03:28:48;99833.05;;;11.95;39.23
20228;BME280;12195;55.790;37.572;2023-05-03T03:31:21;99835.80;;;11.93;38.98
20228;BME280;12195;55.790;37.572;2023-05-03T03:33:56;99836.79;;;11.91;39.24
20228;BME280;12195;55.790;37.572;2023-05-03T03:36:29;99842.25;;;11.88;39.39
20228;BME280;12195;55.790;37.572;2023-05-03T03:39:01;99841.14;;;11.92;39.01
20228;BME280;12195;55.790;37.572;2023-05-03T03:41:36;99835.19;;;11.88;39.47
20228;BME280;12195;55.790;37.572;2023-05-03T03:44:08;99829.84;;;11.90;39.74
20228;BME280;12195;55.790;37.572;2023-05-03T03:46:40;99846.48;;;11.90;39.60
20228;BME280;12195;55.790;37.572;2023-05-03T03:49:13;99849.20;;;11.89;40.01
20228;BME280;12195;55.790;37.572;2023-05-03T03:51:45;99850.06;;;11.89;39.53
20228;BME280;12195;55.790;37.572;2023-05-03T03:54:18;99845.62;;;11.90;39.57
20228;BME280;12195;55.790;37.572;2023-05-03T03:56:50;99870.25;;;11.89;40.71
20228;BME280;12195;55.790;37.572;2023-05-03T03:59:22;99858.73;;;11.76;45.67
20228;BME280;12195;55.790;37.572;2023-05-03T04:01:55;99867.31;;;11.64;45.31
20228;BME280;12195;55.790;37.572;2023-05-03T04:04:29;99860.77;;;11.40;47.01
20228;BME280;12195;55.790;37.572;2023-05-03T04:07:02;99880.27;;;11.20;48.25
20228;BME280;12195;55.790;37.572;2023-05-03T04:09:34;99885.32;;;11.08;50.62
20228;BME280;12195;55.790;37.572;2023-05-03T04:12:07;99880.64;;;10.97;49.91
20228;BME280;12195;55.790;37.572;2023-05-03T04:14:40;99875.62;;;10.92;50.59
20228;BME280;12195;55.790;37.572;2023-05-03T04:17:12;99874.64;;;10.95;48.19
20228;BME280;12195;55.790;37.572;2023-05-03T04:19:45;99880.72;;;10.95;48.08
20228;BME280;12195;55.790;37.572;2023-05-03T04:22:17;99865.47;;;11.02;48.97
20228;BME280;12195;55.790;37.572;2023-05-03T04:24:49;99868.46;;;11.12;50.12
20228;BME280;12195;55.790;37.572;2023-05-03T04:27:22;99876.78;;;11.20;49.37
20228;BME280;12195;55.790;37.572;2023-05-03T04:29:56;99870.19;;;11.28;48.98
20228;BME280;12195;55.790;37.572;2023-05-03T04:32:30;99873.32;;;11.35;48.01
20228;BME280;12195;55.790;37.572;2023-05-03T04:35:05;99880.09;;;11.54;45.85
20228;BME280;12195;55.790;37.572;2023-05-03T04:37:40;99867.20;;;11.34;49.88
20228;BME280;12195;55.790;37.572;2023-05-03T04:40:14;99866.77;;;11.26;50.64
20228;BME280;12195;55.790;37.572;2023-05-03T04:42:49;99878.55;;;11.19;48.30
20228;BME280;12195;55.790;37.572;2023-05-03T04:45:22;99883.28;;;11.13;51.35
20228;BME280;12195;55.790;37.572;2023-05-03T04:47:54;99900.49;;;11.03;50.74
20228;BME280;12195;55.790;37.572;2023-05-03T04:50:27;99891.52;;;11.07;51.11
20228;BME280;12195;55.790;37.572;2023-05-03T04:53:01;99885.01;;;11.14;51.35
20228;BME280;12195;55.790;37.572;2023-05-03T04:55:35;99884.73;;;11.18;51.31
20228;BME280;12195;55.790;37.572;2023-05-03T04:58:08;99895.37;;;11.32;49.61
20228;BME280;12195;55.790;37.572;2023-05-03T05:00:44;99900.05;;;11.43;49.70
20228;BME280;12195;55.790;37.572;2023-05-03T05:03:18;99890.78;;;11.51;51.58
20228;BME280;12195;55.790;37.572;2023-05-03T05:05:51;99892.59;;;11.66;51.19
20228;BME280;12195;55.790;37.572;2023-05-03T05:08:23;99894.67;;;11.91;51.18
20228;BME280;12195;55.790;37.572;2023-05-03T05:10:57;99890.30;;;12.21;47.62
20228;BME280;12195;55.790;37.572;2023-05-03T05:13:32;99890.46;;;12.47;49.27
20228;BME280;12195;55.790;37.572;2023-05-03T05:16:04;99887.58;;;12.66;47.97
20228;BME280;12195;55.790;37.572;2023-05-03T05:18:37;99886.84;;;12.78;48.42
20228;BME280;12195;55.790;37.572;2023-05-03T05:21:11;99900.67;;;12.81;46.08
20228;BME280;12195;55.790;37.572;2023-05-03T05:23:44;99901.23;;;12.86;45.57
20228;BME280;12195;55.790;37.572;2023-05-03T05:26:17;99897.55;;;12.89;46.22
20228;BME280;12195;55.790;37.572;2023-05-03T05:28:51;99897.20;;;12.95;45.54
20228;BME280;12195;55.790;37.572;2023-05-03T05:31:24;99904.75;;;13.01;46.04
20228;BME280;12195;55.790;37.572;2023-05-03T05:33:56;99898.25;;;13.06;45.37
20228;BME280;12195;55.790;37.572;2023-05-03T05:36:30;99895.05;;;13.15;45.98
20228;BME280;12195;55.790;37.572;2023-05-03T05:39:04;99891.83;;;13.24;45.50
20228;BME280;12195;55.790;37.572;2023-05-03T05:41:36;99895.42;;;13.37;45.84
20228;BME280;12195;55.790;37.572;2023-05-03T05:44:09;99895.73;;;13.59;45.68
20228;BME280;12195;55.790;37.572;2023-05-03T05:46:43;99888.98;;;13.82;45.48
20228;BME280;12195;55.790;37.572;2023-05-03T05:49:16;99894.55;;;14.04;45.99
20228;BME280;12195;55.790;37.572;2023-05-03T05:51:48;99888.55;;;14.14;44.80
20228;BME280;12195;55.790;37.572;2023-05-03T05:54:22;99888.83;;;14.24;44.70
20228;BME280;12195;55.790;37.572;2023-05-03T05:56:54;99900.07;;;14.40;44.59
20228;BME280;12195;55.790;37.572;2023-05-03T05:59:27;99899.24;;;14.52;44.31
20228;BME280;12195;55.790;37.572;2023-05-03T06:02:01;99894.18;;;14.74;44.14
20228;BME280;12195;55.790;37.572;2023-05-03T06:04:34;99898.76;;;14.84;43.71
20228;BME280;12195;55.790;37.572;2023-05-03T06:07:06;99894.00;;;14.89;42.75
20228;BME280;12195;55.790;37.572;2023-05-03T06:09:38;99896.73;;;14.88;43.31
20228;BME280;12195;55.790;37.572;2023-05-03T06:12:11;99898.62;;;14.86;43.19
20228;BME280;12195;55.790;37.572;2023-05-03T06:14:45;99899.59;;;14.85;42.92
20228;BME280;12195;55.790;37.572;2023-05-03T06:17:19;99891.77;;;14.96;42.85
20228;BME280;12195;55.790;37.572;2023-05-03T06:19:53;99898.64;;;14.98;42.77
20228;BME280;12195;55.790;37.572;2023-05-03T06:22:25;99893.45;;;14.97;42.54
20228;BME280;12195;55.790;37.572;2023-05-03T06:24:58;99901.92;;;14.89;42.82
20228;BME280;12195;55.790;37.572;2023-05-03T06:27:31;99906.16;;;14.92;42.80
20228;BME280;12195;55.790;37.572;2023-05-03T06:30:04;99909.31;;;14.97;42.51
20228;BME280;12195;55.790;37.572;2023-05-03T06:32:38;99909.02;;;15.01;42.26
20228;BME280;12195;55.790;37.572;2023-05-03T06:35:12;99909.84;;;15.14;42.56
20228;BME280;12195;55.790;37.572;2023-05-03T06:37:45;99913.34;;;15.40;41.75
20228;BME280;12195;55.790;37.572;2023-05-03T06:40:18;99915.05;;;15.77;41.54
20228;BME280;12195;55.790;37.572;2023-05-03T06:42:51;99914.47;;;16.08;40.56
20228;BME280;12195;55.790;37.572;2023-05-03T06:45:25;99913.24;;;16.25;39.42
20228;BME280;12195;55.790;37.572;2023-05-03T06:47:59;99909.41;;;16.29;39.91
20228;BME280;12195;55.790;37.572;2023-05-03T06:50:32;99917.36;;;16.29;40.18
20228;BME280;12195;55.790;37.572;2023-05-03T06:53:04;99914.81;;;16.27;39.60
20228;BME280;12195;55.790;37.572;2023-05-03T06:55:37;99910.13;;;16.31;39.41
20228;BME280;12195;55.790;37.572;2023-05-03T06:58:09;99912.55;;;16.34;39.60
20228;BME280;12195;55.790;37.572;2023-05-03T07:00:42;99914.06;;;16.25;39.60
20228;BME280;12195;55.790;37.572;2023-05-03T07:03:15;99907.14;;;16.35;39.63
20228;BME280;12195;55.790;37.572;2023-05-03T07:05:48;99907.14;;;16.35;39.63
20228;BME280;12195;55.790;37.572;2023-05-03T07:08:21;99911.17;;;16.41;39.27
20228;BME280;12195;55.790;37.572;2023-05-03T07:10:54;99917.08;;;16.44;39.29
20228;BME280;12195;55.790;37.572;2023-05-03T07:13:26;99913.02;;;16.51;39.55
20228;BME280;12195;55.790;37.572;2023-05-03T07:15:59;99923.08;;;16.81;39.38
20228;BME280;12195;55.790;37.572;2023-05-03T07:18:33;99923.08;;;16.81;39.38
20228;BME280;12195;55.790;37.572;2023-05-03T07:21:05;99902.73;;;16.92;38.33
20228;BME280;12195;55.790;37.572;2023-05-03T07:23:39;99902.73;;;16.92;38.33
20228;BME280;12195;55.790;37.572;2023-05-03T07:26:12;99922.41;;;17.12;38.62
20228;BME280;12195;55.790;37.572;2023-05-03T07:28:44;99926.52;;;17.16;38.32
20228;BME280;12195;55.790;37.572;2023-05-03T07:31:16;99925.54;;;17.17;38.25
20228;BME280;12195;55.790;37.572;2023-05-03T07:33:49;99927.60;;;17.35;38.29
20228;BME280;12195;55.790;37.572;2023-05-03T07:36:21;99929.32;;;17.47;38.50
20228;BME280;12195;55.790;37.572;2023-05-03T07:38:54;99933.04;;;17.67;38.14
20228;BME280;12195;55.790;37.572;2023-05-03T07:41:27;99916.39;;;17.76;37.50
20228;BME280;12195;55.790;37.572;2023-05-03T07:43:59;99928.05;;;17.95;37.63
20228;BME280;12195;55.790;37.572;2023-05-03T07:46:32;99929.72;;;18.07;37.88
20228;BME280;12195;55.790;37.572;2023-05-03T07:49:05;99927.05;;;18.07;36.90
20228;BME280;12195;55.790;37.572;2023-05-03T07:51:38;99929.66;;;18.18;37.24
20228;BME280;12195;55.790;37.572;2023-05-03T07:54:11;99930.73;;;18.38;36.81
20228;BME280;12195;55.790;37.572;2023-05-03T07:56:43;99939.24;;;18.52;36.22
20228;BME280;12195;55.790;37.572;2023-05-03T07:59:16;99938.34;;;18.63;36.13
20228;BME280;12195;55.790;37.572;2023-05-03T08:01:48;99947.84;;;18.76;36.09
20228;BME280;12195;55.790;37.572;2023-05-03T08:04:21;99955.33;;;18.71;36.13
20228;BME280;12195;55.790;37.572;2023-05-03T08:06:54;99953.77;;;18.48;36.27
20228;BME280;12195;55.790;37.572;2023-05-03T08:09:27;99954.53;;;18.28;37.23
20228;BME280;12195;55.790;37.572;2023-05-03T08:12:00;99960.05;;;18.05;37.16
20228;BME280;12195;55.790;37.572;2023-05-03T08:14:33;99959.95;;;17.84;37.52
20228;BME280;12195;55.790;37.572;2023-05-03T08:17:07;99960.10;;;17.61;38.00
20228;BME280;12195;55.790;37.572;2023-05-03T08:19:39;99960.48;;;17.45;39.38
20228;BME280;12195;55.790;37.572;2023-05-03T08:22:12;99960.55;;;17.33;39.52
20228;BME280;12195;55.790;37.572;2023-05-03T08:24:44;99973.45;;;17.26;41.34
20228;BME280;12195;55.790;37.572;2023-05-03T08:27:17;99968.86;;;17.17;43.99
20228;BME280;12195;55.790;37.572;2023-05-03T08:29:49;99974.28;;;17.16;41.39
20228;BME280;12195;55.790;37.572;2023-05-03T08:32:21;99973.62;;;16.90;41.61
20228;BME280;12195;55.790;37.572;2023-05-03T08:34:55;99973.62;;;16.90;41.61
20228;BME280;12195;55.790;37.572;2023-05-03T08:37:27;99982.55;;;16.89;42.15
20228;BME280;12195;55.790;37.572;2023-05-03T08:40:00;99979.30;;;16.97;41.99
20228;BME280;12195;55.790;37.572;2023-05-03T08:42:44;99982.84;;;17.08;42.66
20228;BME280;12195;55.790;37.572;2023-05-03T08:45:11;99986.02;;;17.24;42.16
20228;BME280;12195;55.790;37.572;2023-05-03T08:47:45;99988.23;;;17.41;42.03
20228;BME280;12195;55.790;37.572;2023-05-03T08:50:22;99982.42;;;17.47;41.12
20228;BME280;12195;55.790;37.572;2023-05-03T08:52:55;99977.23;;;17.46;42.39
20228;BME280;12195;55.790;37.572;2023-05-03T08:55:27;99973.47;;;17.37;43.73
20228;BME280;12195;55.790;37.572;2023-05-03T08:58:00;99971.52;;;17.17;45.85
20228;BME280;12195;55.790;37.572;2023-05-03T09:00:32;99961.81;;;16.94;46.57
20228;BME280;12195;55.790;37.572;2023-05-03T09:03:05;99953.85;;;16.83;48.58
20228;BME280;12195;55.790;37.572;2023-05-03T09:05:38;99959.64;;;16.88;45.45
20228;BME280;12195;55.790;37.572;2023-05-03T09:08:12;99969.80;;;17.05;44.98
20228;BME280;12195;55.790;37.572;2023-05-03T09:10:46;99978.27;;;17.32;44.26
20228;BME280;12195;55.790;37.572;2023-05-03T09:13:18;99985.56;;;17.52;43.06
20228;BME280;12195;55.790;37.572;2023-05-03T09:15:54;99983.50;;;17.67;42.00
20228;BME280;12195;55.790;37.572;2023-05-03T09:18:27;99985.31;;;17.77;41.92
20228;BME280;12195;55.790;37.572;2023-05-03T09:21:00;99990.38;;;17.80;42.00
20228;BME280;12195;55.790;37.572;2023-05-03T09:23:32;99989.05;;;17.97;41.15
20228;BME280;12195;55.790;37.572;2023-05-03T09:26:04;99979.09;;;18.21;40.67
20228;BME280;12195;55.790;37.572;2023-05-03T09:28:40;99982.81;;;18.40;39.96
20228;BME280;12195;55.790;37.572;2023-05-03T09:31:13;99978.89;;;18.55;39.23
20228;BME280;12195;55.790;37.572;2023-05-03T09:33:45;99978.83;;;18.66;38.87
20228;BME280;12195;55.790;37.572;2023-05-03T09:36:18;99977.02;;;18.87;38.30
20228;BME280;12195;55.790;37.572;2023-05-03T09:38:51;99981.45;;;19.18;38.28
20228;BME280;12195;55.790;37.572;2023-05-03T09:41:28;99988.06;;;19.44;37.67
20228;BME280;12195;55.790;37.572;2023-05-03T09:44:01;99989.32;;;19.70;37.20
20228;BME280;12195;55.790;37.572;2023-05-03T09:46:33;99990.75;;;19.84;37.03
20228;BME280;12195;55.790;37.572;2023-05-03T09:49:07;99994.88;;;19.97;36.66
20228;BME280;12195;55.790;37.572;2023-05-03T09:51:39;100002.31;;;19.94;36.36
20228;BME280;12195;55.790;37.572;2023-05-03T09:54:12;100011.89;;;19.66;36.69
20228;BME280;12195;55.790;37.572;2023-05-03T09:56:45;100003.95;;;19.25;37.36
20228;BME280;12195;55.790;37.572;2023-05-03T09:59:19;100011.38;;;18.90;37.35
20228;BME280;12195;55.790;37.572;2023-05-03T10:02:01;100012.19;;;18.70;38.02
20228;BME280;12195;55.790;37.572;2023-05-03T10:04:28;100012.77;;;18.42;38.36
20228;BME280;12195;55.790;37.572;2023-05-03T10:07:02;100018.22;;;18.30;38.74
20228;BME280;12195;55.790;37.572;2023-05-03T10:09:43;100015.34;;;18.22;39.30
20228;BME280;12195;55.790;37.572;2023-05-03T10:12:17;100027.30;;;18.27;39.28
20228;BME280;12195;55.790;37.572;2023-05-03T10:14:51;100018.40;;;18.60;39.17
20228;BME280;12195;55.790;37.572;2023-05-03T10:17:27;100028.31;;;18.89;38.42
20228;BME280;12195;55.790;37.572;2023-05-03T10:23:06;100015.75;;;19.32;38.26
20228;BME280;12195;55.790;37.572;2023-05-03T10:26:11;100023.36;;;19.37;37.78
20228;BME280;12195;55.790;37.572;2023-05-03T10:28:15;100024.37;;;19.45;37.72
20228;BME280;12195;55.790;37.572;2023-05-03T10:30:47;100014.38;;;19.58;37.72
20228;BME280;12195;55.790;37.572;2023-05-03T10:33:33;100009.53;;;19.73;37.75
20228;BME280;12195;55.790;37.572;2023-05-03T10:35:55;100014.91;;;19.82;37.40
20228;BME280;12195;55.790;37.572;2023-05-03T10:38:29;100011.86;;;19.96;37.85
20228;BME280;12195;55.790;37.572;2023-05-03T10:41:02;100012.16;;;20.03;37.24
20228;BME280;12195;55.790;37.572;2023-05-03T10:46:29;100010.03;;;20.36;36.90
20228;BME280;12195;55.790;37.572;2023-05-03T10:49:20;100012.30;;;20.60;36.60
20228;BME280;12195;55.790;37.572;2023-05-03T10:51:52;100008.07;;;20.77;36.62
20228;BME280;12195;55.790;37.572;2023-05-03T10:54:25;100005.98;;;21.09;35.55
20228;BME280;12195;55.790;37.572;2023-05-03T10:56:57;100012.16;;;21.28;34.69
20228;BME280;12195;55.790;37.572;2023-05-03T10:59:44;100008.59;;;21.47;34.93
20228;BME280;12195;55.790;37.572;2023-05-03T11:02:05;100019.69;;;21.52;34.17
20228;BME280;12195;55.790;37.572;2023-05-03T11:04:41;100014.52;;;21.31;34.23
20228;BME280;12195;55.790;37.572;2023-05-03T11:07:21;100017.11;;;21.04;35.07
20228;BME280;12195;55.790;37.572;2023-05-03T11:09:54;100025.49;;;20.81;35.69
20228;BME280;12195;55.790;37.572;2023-05-03T11:12:27;100014.53;;;20.45;36.42
20228;BME280;12195;55.790;37.572;2023-05-03T11:14:59;100007.47;;;20.25;36.31
20228;BME280;12195;55.790;37.572;2023-05-03T11:17:32;100023.14;;;20.09;36.41
20228;BME280;12195;55.790;37.572;2023-05-03T11:20:06;100015.51;;;19.95;36.76
20228;BME280;12195;55.790;37.572;2023-05-03T11:22:41;100013.66;;;19.96;36.66
20228;BME280;12195;55.790;37.572;2023-05-03T11:25:13;100007.86;;;19.81;36.90
20228;BME280;12195;55.790;37.572;2023-05-03T11:27:47;100017.09;;;19.77;37.25
20228;BME280;12195;55.790;37.572;2023-05-03T11:30:19;100013.44;;;20.08;36.90
20228;BME280;12195;55.790;37.572;2023-05-03T11:32:52;100007.89;;;20.30;36.51
20228;BME280;12195;55.790;37.572;2023-05-03T11:35:24;100003.28;;;20.51;36.22
20228;BME280;12195;55.790;37.572;2023-05-03T11:37:57;100000.48;;;20.53;35.99
20228;BME280;12195;55.790;37.572;2023-05-03T11:40:29;99993.59;;;20.41;36.15
20228;BME280;12195;55.790;37.572;2023-05-03T11:43:01;99988.94;;;20.24;36.75
20228;BME280;12195;55.790;37.572;2023-05-03T11:45:41;99991.67;;;20.03;36.76
20228;BME280;12195;55.790;37.572;2023-05-03T11:48:16;99987.78;;;20.17;36.70
20228;BME280;12195;55.790;37.572;2023-05-03T11:50:54;99994.59;;;20.49;36.17
20228;BME280;12195;55.790;37.572;2023-05-03T11:53:25;99994.76;;;20.96;35.48
20228;BME280;12195;55.790;37.572;2023-05-03T11:55:57;99990.35;;;22.06;33.85
20228;BME280;12195;55.790;37.572;2023-05-03T11:58:31;99992.45;;;22.74;31.64
20228;BME280;12195;55.790;37.572;2023-05-03T12:01:05;99980.84;;;23.85;30.47
20228;BME280;12195;55.790;37.572;2023-05-03T12:03:38;99993.13;;;24.45;29.74
20228;BME280;12195;55.790;37.572;2023-05-03T12:06:11;99994.47;;;24.41;29.33
20228;BME280;12195;55.790;37.572;2023-05-03T12:08:44;99997.41;;;24.71;28.65
20228;BME280;12195;55.790;37.572;2023-05-03T12:11:17;99992.38;;;25.17;27.63
20228;BME280;12195;55.790;37.572;2023-05-03T12:13:57;99995.09;;;24.76;28.04
20228;BME280;12195;55.790;37.572;2023-05-03T12:16:44;99993.59;;;26.01;26.80
20228;BME280;12195;55.790;37.572;2023-05-03T12:19:05;99984.52;;;26.85;25.76
20228;BME280;12195;55.790;37.572;2023-05-03T12:21:46;99984.28;;;28.33;23.94
20228;BME280;12195;55.790;37.572;2023-05-03T12:24:20;99985.48;;;29.29;22.66
20228;BME280;12195;55.790;37.572;2023-05-03T12:26:55;99982.69;;;30.53;21.31
20228;BME280;12195;55.790;37.572;2023-05-03T12:29:28;99985.08;;;31.66;20.63
20228;BME280;12195;55.790;37.572;2023-05-03T12:32:03;99990.14;;;30.38;21.11
20228;BME280;12195;55.790;37.572;2023-05-03T12:34:36;99983.72;;;28.73;22.75
20228;BME280;12195;55.790;37.572;2023-05-03T12:37:10;99992.20;;;28.49;23.29
20228;BME280;12195;55.790;37.572;2023-05-03T12:39:43;99990.12;;;27.87;23.81
20228;BME280;12195;55.790;37.572;2023-05-03T12:42:17;99985.58;;;29.15;22.88
20228;BME280;12195;55.790;37.572;2023-05-03T12:44:50;99982.39;;;31.34;21.99
20228;BME280;12195;55.790;37.572;2023-05-03T12:47:23;99975.12;;;32.61;18.81
20228;BME280;12195;55.790;37.572;2023-05-03T12:49:58;99979.88;;;32.72;18.49
20228;BME280;12195;55.790;37.572;2023-05-03T12:52:32;99965.00;;;32.37;18.36
20228;BME280;12195;55.790;37.572;2023-05-03T12:55:06;99978.21;;;32.34;19.47
20228;BME280;12195;55.790;37.572;2023-05-03T12:57:40;99972.80;;;29.02;21.61
20228;BME280;12195;55.790;37.572;2023-05-03T13:00:14;99978.59;;;28.99;22.11
20228;BME280;12195;55.790;37.572;2023-05-03T13:02:50;99967.55;;;30.97;20.21
20228;BME280;12195;55.790;37.572;2023-05-03T13:05:24;99959.91;;;32.54;18.60
20228;BME280;12195;55.790;37.572;2023-05-03T13:07:59;99966.20;;;33.10;18.09
20228;BME280;12195;55.790;37.572;2023-05-03T13:10:33;99957.66;;;34.46;16.97
20228;BME280;12195;55.790;37.572;2023-05-03T13:13:06;99974.27;;;34.26;16.78
20228;BME280;12195;55.790;37.572;2023-05-03T13:15:39;99971.48;;;33.05;17.00
20228;BME280;12195;55.790;37.572;2023-05-03T13:18:11;99970.05;;;31.05;19.05
20228;BME280;12195;55.790;37.572;2023-05-03T13:20:44;99975.69;;;31.17;19.29
20228;BME280;12195;55.790;37.572;2023-05-03T13:23:18;99973.38;;;32.36;17.95
20228;BME280;12195;55.790;37.572;2023-05-03T13:25:51;99980.68;;;31.72;18.10
20228;BME280;12195;55.790;37.572;2023-05-03T13:28:24;99972.11;;;29.77;19.70
20228;BME280;12195;55.790;37.572;2023-05-03T13:30:57;99988.81;;;27.97;22.03